sensor_id;sensor_type;location;lat;lon;timestamp;pressure;altitude;pressure_sealevel;temperature;humidity
52137;BME280;69622;49.570;10.986;2023-06-22T00:01:10;98488.66;;;21.45;98.30
52137;BME280;69622;49.570;10.986;2023-06-22T00:04:12;98488.34;;;21.48;97.90
52137;BME280;69622;49.570;10.986;2023-06-22T00:07:13;98498.25;;;21.46;98.09
52137;BME280;69622;49.570;10.986;2023-06-22T00:10:15;98495.69;;;21.38;98.83
52137;BME280;69622;49.570;10.986;2023-06-22T00:13:16;98497.69;;;21.36;99.07
52137;BME280;69622;49.570;10.986;2023-06-22T00:16:19;98491.03;;;21.40;97.86
52137;BME280;69622;49.570;10.986;2023-06-22T00:19:23;98491.88;;;21.40;98.06
52137;BME280;69622;49.570;10.986;2023-06-22T00:22:24;98497.97;;;21.41;97.83
52137;BME280;69622;49.570;10.986;2023-06-22T00:25:29;98501.44;;;21.41;97.77
52137;BME280;69622;49.570;10.986;2023-06-22T00:28:30;98501.16;;;21.36;97.85
52137;BME280;69622;49.570;10.986;2023-06-22T00:31:32;98509.66;;;21.32;99.21
52137;BME280;69622;49.570;10.986;2023-06-22T00:34:33;98518.84;;;21.13;100.00
52137;BME280;69622;49.570;10.986;2023-06-22T00:37:35;98519.22;;;21.10;100.00
52137;BME280;69622;49.570;10.986;2023-06-22T00:40:37;98528.59;;;21.12;100.00
52137;BME280;69622;49.570;10.986;2023-06-22T00:43:38;98536.16;;;21.01;100.00
52137;BME280;69622;49.570;10.986;2023-06-22T00:46:40;98549.69;;;20.98;100.00
52137;BME280;69622;49.570;10.986;2023-06-22T00:49:42;98538.31;;;20.97;100.00
52137;BME280;69622;49.570;10.986;2023-06-22T00:52:43;98551.94;;;20.86;100.00
52137;BME280;69622;49.570;10.986;2023-06-22T00:55:45;98554.41;;;20.87;100.00
52137;BME280;69622;49.570;10.986;2023-06-22T00:58:49;98552.41;;;20.89;100.00
52137;BME280;69622;49.570;10.986;2023-06-22T01:01:54;98546.84;;;20.84;100.00
52137;BME280;69622;49.570;10.986;2023-06-22T01:04:57;98540.72;;;20.84;100.00
52137;BME280;69622;49.570;10.986;2023-06-22T01:08:06;98523.25;;;20.98;100.00
52137;BME280;69622;49.570;10.986;2023-06-22T01:11:12;98509.28;;;21.12;99.09
52137;BME280;69622;49.570;10.986;2023-06-22T01:14:28;98483.59;;;21.20;98.68
52137;BME280;69622;49.570;10.986;2023-06-22T01:17:32;98472.75;;;21.15;99.62
52137;BME280;69622;49.570;10.986;2023-06-22T01:20:35;98460.88;;;21.11;99.86
52137;BME280;69622;49.570;10.986;2023-06-22T01:30:27;98429.06;;;20.82;100.00
52137;BME280;69622;49.570;10.986;2023-06-22T01:33:33;98436.34;;;20.80;100.00
52137;BME280;69622;49.570;10.986;2023-06-22T01:36:36;98430.34;;;20.71;100.00
52137;BME280;69622;49.570;10.986;2023-06-22T01:39:39;98445.66;;;20.53;100.00
52137;BME280;69622;49.570;10.986;2023-06-22T01:42:41;98446.56;;;20.37;100.00
52137;BME280;69622;49.570;10.986;2023-06-22T01:45:44;98466.53;;;20.31;100.00
52137;BME280;69622;49.570;10.986;2023-06-22T01:48:46;98467.91;;;20.27;100.00
52137;BME280;69622;49.570;10.986;2023-06-22T01:51:48;98461.72;;;20.43;100.00
52137;BME280;69622;49.570;10.986;2023-06-22T01:54:50;98465.00;;;20.45;100.00
52137;BME280;69622;49.570;10.986;2023-06-22T01:57:51;98461.78;;;20.27;100.00
52137;BME280;69622;49.570;10.986;2023-06-22T02:01:00;98470.44;;;20.13;100.00
52137;BME280;69622;49.570;10.986;2023-06-22T02:04:27;98476.00;;;20.26;100.00
52137;BME280;69622;49.570;10.986;2023-06-22T02:07:39;98493.69;;;20.17;100.00
52137;BME280;69622;49.570;10.986;2023-06-22T02:10:43;98495.56;;;20.00;100.00
52137;BME280;69622;49.570;10.986;2023-06-22T02:13:46;98504.13;;;20.02;100.00
52137;BME280;69622;49.570;10.986;2023-06-22T02:16:48;98495.91;;;20.06;100.00
52137;BME280;69622;49.570;10.986;2023-06-22T02:19:49;98482.63;;;20.22;100.00
52137;BME280;69622;49.570;10.986;2023-06-22T02:22:51;98484.94;;;20.17;100.00
52137;BME280;69622;49.570;10.986;2023-06-22T02:25:52;98480.47;;;20.17;100.00
52137;BME280;69622;49.570;10.986;2023-06-22T02:28:54;98478.88;;;20.08;100.00
52137;BME280;69622;49.570;10.986;2023-06-22T02:31:55;98496.22;;;20.02;100.00
52137;BME280;69622;49.570;10.986;2023-06-22T02:34:57;98496.53;;;20.08;100.00
52137;BME280;69622;49.570;10.986;2023-06-22T02:37:59;98523.59;;;20.10;100.00
52137;BME280;69622;49.570;10.986;2023-06-22T02:41:02;98566.81;;;20.00;100.00
52137;BME280;69622;49.570;10.986;2023-06-22T02:44:04;98611.25;;;19.89;100.00
52137;BME280;69622;49.570;10.986;2023-06-22T02:47:05;98662.69;;;19.85;100.00
52137;BME280;69622;49.570;10.986;2023-06-22T02:50:07;98652.31;;;19.91;100.00
52137;BME280;69622;49.570;10.986;2023-06-22T02:53:08;98639.94;;;19.92;100.00
52137;BME280;69622;49.570;10.986;2023-06-22T02:56:10;98634.44;;;20.10;100.00
52137;BME280;69622;49.570;10.986;2023-06-22T02:59:11;98626.03;;;20.14;100.00
52137;BME280;69622;49.570;10.986;2023-06-22T03:02:13;98627.19;;;20.20;100.00
52137;BME280;69622;49.570;10.986;2023-06-22T03:05:15;98623.38;;;20.22;100.00
52137;BME280;69622;49.570;10.986;2023-06-22T03:08:19;98616.09;;;20.24;100.00
52137;BME280;69622;49.570;10.986;2023-06-22T03:11:21;98611.81;;;20.23;100.00
52137;BME280;69622;49.570;10.986;2023-06-22T03:14:22;98598.91;;;20.37;100.00
52137;BME280;69622;49.570;10.986;2023-06-22T03:17:24;98591.47;;;20.32;100.00
52137;BME280;69622;49.570;10.986;2023-06-22T03:20:26;98585.88;;;20.27;100.00
52137;BME280;69622;49.570;10.986;2023-06-22T03:23:28;98581.16;;;20.14;100.00
52137;BME280;69622;49.570;10.986;2023-06-22T03:26:30;98575.38;;;20.11;100.00
52137;BME280;69622;49.570;10.986;2023-06-22T03:29:31;98576.78;;;20.29;100.00
52137;BME280;69622;49.570;10.986;2023-06-22T03:32:33;98567.34;;;20.35;100.00
52137;BME280;69622;49.570;10.986;2023-06-22T03:35:34;98555.19;;;20.26;100.00
52137;BME280;69622;49.570;10.986;2023-06-22T03:38:36;98560.31;;;20.27;100.00
52137;BME280;69622;49.570;10.986;2023-06-22T03:41:37;98539.00;;;20.29;100.00
52137;BME280;69622;49.570;10.986;2023-06-22T03:44:38;98546.88;;;20.06;100.00
52137;BME280;69622;49.570;10.986;2023-06-22T03:47:41;98544.53;;;20.11;100.00
52137;BME280;69622;49.570;10.986;2023-06-22T03:50:42;98521.94;;;20.09;100.00
52137;BME280;69622;49.570;10.986;2023-06-22T03:53:45;98524.41;;;20.10;100.00
52137;BME280;69622;49.570;10.986;2023-06-22T03:56:46;98509.22;;;20.12;100.00
52137;BME280;69622;49.570;10.986;2023-06-22T03:59:48;98507.06;;;20.16;100.00
52137;BME280;69622;49.570;10.986;2023-06-22T04:02:50;98520.25;;;20.16;100.00
52137;BME280;69622;49.570;10.986;2023-06-22T04:05:51;98496.53;;;20.08;100.00
52137;BME280;69622;49.570;10.986;2023-06-22T04:08:53;98481.56;;;20.00;100.00
52137;BME280;69622;49.570;10.986;2023-06-22T04:11:54;98483.53;;;19.98;100.00
52137;BME280;69622;49.570;10.986;2023-06-22T04:14:55;98479.59;;;19.94;100.00
52137;BME280;69622;49.570;10.986;2023-06-22T04:17:57;98479.06;;;20.07;100.00
52137;BME280;69622;49.570;10.986;2023-06-22T04:20:58;98476.75;;;20.03;100.00
52137;BME280;69622;49.570;10.986;2023-06-22T04:24:00;98467.63;;;20.14;100.00
52137;BME280;69622;49.570;10.986;2023-06-22T04:27:01;98459.69;;;20.22;100.00
52137;BME280;69622;49.570;10.986;2023-06-22T04:30:04;98461.91;;;20.33;100.00
52137;BME280;69622;49.570;10.986;2023-06-22T04:33:06;98455.63;;;20.34;100.00
52137;BME280;69622;49.570;10.986;2023-06-22T04:36:07;98444.75;;;20.38;100.00
52137;BME280;69622;49.570;10.986;2023-06-22T04:39:10;98456.34;;;20.28;100.00
52137;BME280;69622;49.570;10.986;2023-06-22T04:42:12;98459.44;;;20.32;100.00
52137;BME280;69622;49.570;10.986;2023-06-22T04:45:13;98449.03;;;20.39;100.00
52137;BME280;69622;49.570;10.986;2023-06-22T04:48:15;98430.31;;;20.48;100.00
52137;BME280;69622;49.570;10.986;2023-06-22T04:51:17;98425.53;;;20.52;100.00
52137;BME280;69622;49.570;10.986;2023-06-22T04:54:23;98432.56;;;20.59;100.00
52137;BME280;69622;49.570;10.986;2023-06-22T04:57:24;98439.03;;;20.57;100.00
52137;BME280;69622;49.570;10.986;2023-06-22T05:00:33;98430.38;;;20.40;100.00
52137;BME280;69622;49.570;10.986;2023-06-22T05:03:37;98434.03;;;20.31;100.00
52137;BME280;69622;49.570;10.986;2023-06-22T05:06:39;98443.19;;;20.51;100.00
52137;BME280;69622;49.570;10.986;2023-06-22T05:09:41;98443.78;;;20.61;100.00
52137;BME280;69622;49.570;10.986;2023-06-22T05:12:43;98431.56;;;20.60;100.00
52137;BME280;69622;49.570;10.986;2023-06-22T05:15:44;98429.03;;;20.44;100.00
52137;BME280;69622;49.570;10.986;2023-06-22T05:18:51;98429.72;;;20.38;100.00
52137;BME280;69622;49.570;10.986;2023-06-22T05:21:52;98431.88;;;20.34;100.00
52137;BME280;69622;49.570;10.986;2023-06-22T05:24:54;98422.31;;;20.33;100.00
52137;BME280;69622;49.570;10.986;2023-06-22T05:27:57;98428.94;;;20.29;100.00
52137;BME280;69622;49.570;10.986;2023-06-22T05:30:58;98423.53;;;20.23;100.00
52137;BME280;69622;49.570;10.986;2023-06-22T05:34:00;98421.66;;;20.31;100.00
52137;BME280;69622;49.570;10.986;2023-06-22T05:37:02;98433.03;;;20.32;100.00
52137;BME280;69622;49.570;10.986;2023-06-22T05:40:04;98425.56;;;20.44;100.00
52137;BME280;69622;49.570;10.986;2023-06-22T05:43:06;98433.66;;;20.65;100.00
52137;BME280;69622;49.570;10.986;2023-06-22T05:46:07;98426.50;;;20.74;100.00
52137;BME280;69622;49.570;10.986;2023-06-22T05:49:09;98434.72;;;20.79;100.00
52137;BME280;69622;49.570;10.986;2023-06-22T05:52:10;98431.25;;;20.78;100.00
52137;BME280;69622;49.570;10.986;2023-06-22T05:55:11;98427.91;;;20.84;100.00
52137;BME280;69622;49.570;10.986;2023-06-22T05:58:13;98425.72;;;20.88;100.00
52137;BME280;69622;49.570;10.986;2023-06-22T06:01:14;98418.66;;;21.03;100.00
52137;BME280;69622;49.570;10.986;2023-06-22T06:04:18;98415.09;;;21.11;100.00
52137;BME280;69622;49.570;10.986;2023-06-22T06:07:19;98415.66;;;21.06;100.00
52137;BME280;69622;49.570;10.986;2023-06-22T06:10:21;98419.56;;;21.10;100.00
52137;BME280;69622;49.570;10.986;2023-06-22T06:13:22;98427.69;;;21.09;100.00
52137;BME280;69622;49.570;10.986;2023-06-22T06:16:24;98423.97;;;21.18;100.00
52137;BME280;69622;49.570;10.986;2023-06-22T06:19:25;98416.69;;;21.20;100.00
52137;BME280;69622;49.570;10.986;2023-06-22T06:22:27;98410.50;;;21.28;100.00
52137;BME280;69622;49.570;10.986;2023-06-22T06:25:28;98413.72;;;21.38;100.00
52137;BME280;69622;49.570;10.986;2023-06-22T06:28:30;98413.97;;;21.43;100.00
52137;BME280;69622;49.570;10.986;2023-06-22T06:31:31;98407.41;;;21.68;100.00
52137;BME280;69622;49.570;10.986;2023-06-22T06:34:33;98396.97;;;21.96;100.00
52137;BME280;69622;49.570;10.986;2023-06-22T06:37:39;98398.84;;;22.02;100.00
52137;BME280;69622;49.570;10.986;2023-06-22T06:40:41;98382.72;;;22.12;100.00
52137;BME280;69622;49.570;10.986;2023-06-22T06:43:44;98385.84;;;22.22;100.00
52137;BME280;69622;49.570;10.986;2023-06-22T06:46:45;98393.50;;;22.32;100.00
52137;BME280;69622;49.570;10.986;2023-06-22T06:49:47;98394.13;;;22.34;100.00
52137;BME280;69622;49.570;10.986;2023-06-22T06:52:48;98392.19;;;22.42;100.00
52137;BME280;69622;49.570;10.986;2023-06-22T06:55:51;98386.81;;;22.57;100.00
52137;BME280;69622;49.570;10.986;2023-06-22T06:58:53;98384.72;;;22.74;100.00
52137;BME280;69622;49.570;10.986;2023-06-22T07:01:55;98373.59;;;22.85;100.00
52137;BME280;69622;49.570;10.986;2023-06-22T07:04:57;98372.84;;;22.91;99.61
52137;BME280;69622;49.570;10.986;2023-06-22T07:07:59;98377.44;;;23.04;100.00
52137;BME280;69622;49.570;10.986;2023-06-22T07:11:01;98377.25;;;23.12;97.84
52137;BME280;69622;49.570;10.986;2023-06-22T07:14:02;98370.56;;;23.16;97.79
52137;BME280;69622;49.570;10.986;2023-06-22T07:17:05;98363.06;;;23.26;97.30
52137;BME280;69622;49.570;10.986;2023-06-22T07:20:07;98364.16;;;23.39;94.06
52137;BME280;69622;49.570;10.986;2023-06-22T07:23:14;98371.34;;;23.45;94.19
52137;BME280;69622;49.570;10.986;2023-06-22T07:26:15;98367.25;;;23.49;93.86
52137;BME280;69622;49.570;10.986;2023-06-22T07:29:18;98370.41;;;23.59;92.88
52137;BME280;69622;49.570;10.986;2023-06-22T07:32:21;98361.91;;;23.77;91.43
52137;BME280;69622;49.570;10.986;2023-06-22T07:35:23;98371.75;;;23.83;89.24
52137;BME280;69622;49.570;10.986;2023-06-22T07:38:25;98365.25;;;24.05;90.48
52137;BME280;69622;49.570;10.986;2023-06-22T07:41:26;98354.47;;;24.20;90.38
52137;BME280;69622;49.570;10.986;2023-06-22T07:44:28;98351.59;;;24.28;87.78
52137;BME280;69622;49.570;10.986;2023-06-22T07:47:29;98352.06;;;24.32;85.28
52137;BME280;69622;49.570;10.986;2023-06-22T07:50:31;98347.56;;;24.39;86.61
52137;BME280;69622;49.570;10.986;2023-06-22T07:53:33;98352.28;;;24.50;85.05
52137;BME280;69622;49.570;10.986;2023-06-22T07:56:34;98349.00;;;24.55;83.74
52137;BME280;69622;49.570;10.986;2023-06-22T07:59:36;98351.25;;;24.58;81.41
52137;BME280;69622;49.570;10.986;2023-06-22T08:02:38;98348.59;;;24.71;83.72
52137;BME280;69622;49.570;10.986;2023-06-22T08:05:39;98352.50;;;24.82;81.30
52137;BME280;69622;49.570;10.986;2023-06-22T08:08:41;98352.06;;;24.91;81.69
52137;BME280;69622;49.570;10.986;2023-06-22T08:11:43;98359.84;;;24.99;78.83
52137;BME280;69622;49.570;10.986;2023-06-22T08:14:45;98358.63;;;25.15;78.68
52137;BME280;69622;49.570;10.986;2023-06-22T08:17:47;98357.78;;;25.21;78.33
52137;BME280;69622;49.570;10.986;2023-06-22T08:20:49;98355.53;;;25.25;76.95
52137;BME280;69622;49.570;10.986;2023-06-22T08:23:51;98347.94;;;25.28;75.49
52137;BME280;69622;49.570;10.986;2023-06-22T08:26:52;98352.19;;;25.36;76.87
52137;BME280;69622;49.570;10.986;2023-06-22T08:29:53;98347.69;;;25.36;76.43
52137;BME280;69622;49.570;10.986;2023-06-22T08:32:59;98341.13;;;25.39;76.71
52137;BME280;69622;49.570;10.986;2023-06-22T08:36:01;98340.53;;;25.37;74.67
52137;BME280;69622;49.570;10.986;2023-06-22T08:39:02;98344.56;;;25.53;75.76
52137;BME280;69622;49.570;10.986;2023-06-22T08:42:04;98342.94;;;25.58;74.60
52137;BME280;69622;49.570;10.986;2023-06-22T08:45:06;98349.47;;;25.62;73.76
52137;BME280;69622;49.570;10.986;2023-06-22T08:48:08;98337.09;;;25.88;72.94
52137;BME280;69622;49.570;10.986;2023-06-22T08:51:09;98346.50;;;25.90;71.55
52137;BME280;69622;49.570;10.986;2023-06-22T08:54:11;98335.16;;;26.02;71.68
52137;BME280;69622;49.570;10.986;2023-06-22T08:57:12;98325.88;;;26.11;73.34
52137;BME280;69622;49.570;10.986;2023-06-22T09:00:14;98330.94;;;26.19;71.77
52137;BME280;69622;49.570;10.986;2023-06-22T09:03:21;98330.47;;;26.28;70.24
52137;BME280;69622;49.570;10.986;2023-06-22T09:06:23;98317.06;;;26.42;68.67
52137;BME280;69622;49.570;10.986;2023-06-22T09:09:24;98315.22;;;26.67;66.61
52137;BME280;69622;49.570;10.986;2023-06-22T09:12:26;98315.81;;;26.69;66.99
52137;BME280;69622;49.570;10.986;2023-06-22T09:15:28;98303.56;;;26.86;67.34
52137;BME280;69622;49.570;10.986;2023-06-22T09:18:30;98308.81;;;26.93;66.23
52137;BME280;69622;49.570;10.986;2023-06-22T09:21:32;98299.91;;;27.06;66.94
52137;BME280;69622;49.570;10.986;2023-06-22T09:24:35;98295.81;;;27.22;64.58
52137;BME280;69622;49.570;10.986;2023-06-22T09:27:36;98290.09;;;27.36;63.81
52137;BME280;69622;49.570;10.986;2023-06-22T09:30:38;98278.56;;;27.54;65.84
52137;BME280;69622;49.570;10.986;2023-06-22T09:33:40;98278.69;;;27.48;65.23
52137;BME280;69622;49.570;10.986;2023-06-22T09:36:41;98273.91;;;27.50;64.66
52137;BME280;69622;49.570;10.986;2023-06-22T09:39:42;98268.81;;;27.48;62.53
52137;BME280;69622;49.570;10.986;2023-06-22T09:42:44;98264.16;;;27.73;62.42
52137;BME280;69622;49.570;10.986;2023-06-22T09:45:45;98266.06;;;27.85;60.23
52137;BME280;69622;49.570;10.986;2023-06-22T09:48:47;98269.84;;;28.07;62.15
52137;BME280;69622;49.570;10.986;2023-06-22T09:51:48;98267.38;;;27.94;56.83
52137;BME280;69622;49.570;10.986;2023-06-22T09:54:52;98250.19;;;28.01;58.55
52137;BME280;69622;49.570;10.986;2023-06-22T09:57:53;98250.69;;;28.10;58.44
52137;BME280;69622;49.570;10.986;2023-06-22T10:00:56;98239.19;;;28.21;57.69
52137;BME280;69622;49.570;10.986;2023-06-22T10:03:58;98248.19;;;28.27;57.39
52137;BME280;69622;49.570;10.986;2023-06-22T10:07:01;98254.72;;;28.43;59.58
52137;BME280;69622;49.570;10.986;2023-06-22T10:10:02;98255.63;;;28.60;59.20
52137;BME280;69622;49.570;10.986;2023-06-22T10:13:09;98267.38;;;28.47;56.37
52137;BME280;69622;49.570;10.986;2023-06-22T10:16:11;98261.19;;;28.70;56.82
52137;BME280;69622;49.570;10.986;2023-06-22T10:19:13;98264.22;;;28.85;55.33
52137;BME280;69622;49.570;10.986;2023-06-22T10:22:14;98258.28;;;28.83;54.10
52137;BME280;69622;49.570;10.986;2023-06-22T10:25:16;98259.47;;;28.99;53.49
52137;BME280;69622;49.570;10.986;2023-06-22T10:28:17;98272.91;;;29.16;54.13
52137;BME280;69622;49.570;10.986;2023-06-22T10:31:18;98274.44;;;29.23;53.74
52137;BME280;69622;49.570;10.986;2023-06-22T10:34:20;98274.22;;;29.13;53.76
52137;BME280;69622;49.570;10.986;2023-06-22T10:37:22;98270.56;;;29.31;53.93
52137;BME280;69622;49.570;10.986;2023-06-22T10:40:23;98267.53;;;29.28;53.18
52137;BME280;69622;49.570;10.986;2023-06-22T10:43:25;98254.88;;;29.23;53.26
52137;BME280;69622;49.570;10.986;2023-06-22T10:46:26;98253.19;;;29.34;52.79
52137;BME280;69622;49.570;10.986;2023-06-22T10:49:29;98251.28;;;29.58;50.11
52137;BME280;69622;49.570;10.986;2023-06-22T10:52:30;98253.28;;;29.79;50.06
52137;BME280;69622;49.570;10.986;2023-06-22T10:55:31;98248.19;;;29.94;50.64
52137;BME280;69622;49.570;10.986;2023-06-22T10:58:51;98249.72;;;30.19;49.21
52137;BME280;69622;49.570;10.986;2023-06-22T11:01:53;98240.75;;;30.13;48.39
52137;BME280;69622;49.570;10.986;2023-06-22T11:04:54;98241.09;;;30.17;50.31
52137;BME280;69622;49.570;10.986;2023-06-22T11:07:56;98244.09;;;30.20;49.03
52137;BME280;69622;49.570;10.986;2023-06-22T11:10:57;98223.63;;;30.14;48.37
52137;BME280;69622;49.570;10.986;2023-06-22T11:13:59;98224.75;;;30.18;48.33
52137;BME280;69622;49.570;10.986;2023-06-22T11:17:01;98227.75;;;30.22;46.83
52137;BME280;69622;49.570;10.986;2023-06-22T11:20:02;98215.34;;;30.32;48.28
52137;BME280;69622;49.570;10.986;2023-06-22T11:23:11;98206.72;;;30.30;46.93
52137;BME280;69622;49.570;10.986;2023-06-22T11:26:13;98207.25;;;30.49;47.87
52137;BME280;69622;49.570;10.986;2023-06-22T11:29:15;98197.94;;;30.74;45.88
52137;BME280;69622;49.570;10.986;2023-06-22T11:32:36;98197.09;;;30.68;46.27
52137;BME280;69622;49.570;10.986;2023-06-22T11:35:38;98197.22;;;30.78;46.25
52137;BME280;69622;49.570;10.986;2023-06-22T11:38:40;98192.97;;;31.04;45.14
52137;BME280;69622;49.570;10.986;2023-06-22T11:41:41;98191.97;;;31.10;44.24
52137;BME280;69622;49.570;10.986;2023-06-22T11:44:43;98189.16;;;31.22;47.91
52137;BME280;69622;49.570;10.986;2023-06-22T11:47:45;98193.25;;;31.24;43.97
52137;BME280;69622;49.570;10.986;2023-06-22T11:50:46;98179.47;;;31.21;43.26
52137;BME280;69622;49.570;10.986;2023-06-22T11:53:48;98177.94;;;31.25;44.19
52137;BME280;69622;49.570;10.986;2023-06-22T11:56:49;98169.53;;;31.43;44.35
52137;BME280;69622;49.570;10.986;2023-06-22T11:59:51;98156.41;;;31.47;44.35
52137;BME280;69622;49.570;10.986;2023-06-22T12:02:52;98153.72;;;31.74;42.51
52137;BME280;69622;49.570;10.986;2023-06-22T12:05:54;98151.25;;;31.72;42.10
52137;BME280;69622;49.570;10.986;2023-06-22T12:08:55;98155.94;;;31.87;41.34
52137;BME280;69622;49.570;10.986;2023-06-22T12:11:57;98150.25;;;31.78;41.59
52137;BME280;69622;49.570;10.986;2023-06-22T12:14:58;98138.47;;;31.84;42.23
52137;BME280;69622;49.570;10.986;2023-06-22T12:18:04;98134.09;;;32.15;43.28
52137;BME280;69622;49.570;10.986;2023-06-22T12:21:06;98128.19;;;32.18;41.75
52137;BME280;69622;49.570;10.986;2023-06-22T12:24:08;98110.31;;;32.34;41.77
52137;BME280;69622;49.570;10.986;2023-06-22T12:27:09;98104.50;;;32.63;40.03
52137;BME280;69622;49.570;10.986;2023-06-22T12:30:11;98100.88;;;32.89;41.44
52137;BME280;69622;49.570;10.986;2023-06-22T12:33:13;98090.50;;;32.56;39.45
52137;BME280;69622;49.570;10.986;2023-06-22T12:36:14;98095.41;;;32.69;40.96
52137;BME280;69622;49.570;10.986;2023-06-22T12:39:17;98082.69;;;32.54;39.86
52137;BME280;69622;49.570;10.986;2023-06-22T12:42:19;98077.31;;;32.59;40.50
52137;BME280;69622;49.570;10.986;2023-06-22T12:45:20;98078.44;;;32.73;40.10
52137;BME280;69622;49.570;10.986;2023-06-22T12:48:22;98080.06;;;32.69;42.10
52137;BME280;69622;49.570;10.986;2023-06-22T12:51:24;98085.72;;;32.73;40.18
52137;BME280;69622;49.570;10.986;2023-06-22T12:54:25;98080.19;;;33.00;40.99
52137;BME280;69622;49.570;10.986;2023-06-22T12:57:33;98085.03;;;33.08;38.53
52137;BME280;69622;49.570;10.986;2023-06-22T13:00:34;98085.72;;;32.78;39.41
52137;BME280;69622;49.570;10.986;2023-06-22T13:03:36;98076.56;;;32.74;39.78
52137;BME280;69622;49.570;10.986;2023-06-22T13:06:37;98072.00;;;32.74;40.19
52137;BME280;69622;49.570;10.986;2023-06-22T13:09:39;98071.47;;;32.77;40.91
52137;BME280;69622;49.570;10.986;2023-06-22T13:12:40;98076.81;;;32.67;42.48
52137;BME280;69622;49.570;10.986;2023-06-22T13:15:41;98077.84;;;32.56;41.89
52137;BME280;69622;49.570;10.986;2023-06-22T13:18:43;98080.88;;;32.70;41.57
52137;BME280;69622;49.570;10.986;2023-06-22T13:21:44;98082.50;;;32.76;40.85
52137;BME280;69622;49.570;10.986;2023-06-22T13:24:46;98076.69;;;32.99;41.29
52137;BME280;69622;49.570;10.986;2023-06-22T13:27:47;98080.25;;;33.46;41.19
52137;BME280;69622;49.570;10.986;2023-06-22T13:30:49;98075.38;;;33.68;38.25
52137;BME280;69622;49.570;10.986;2023-06-22T13:33:51;98082.13;;;33.60;39.04
52137;BME280;69622;49.570;10.986;2023-06-22T13:36:53;98076.72;;;33.71;37.75
52137;BME280;69622;49.570;10.986;2023-06-22T13:39:55;98089.13;;;33.56;38.28
52137;BME280;69622;49.570;10.986;2023-06-22T13:42:57;98078.88;;;33.58;40.16
52137;BME280;69622;49.570;10.986;2023-06-22T13:45:58;98083.72;;;33.31;39.49
52137;BME280;69622;49.570;10.986;2023-06-22T13:49:00;98084.50;;;33.16;39.40
52137;BME280;69622;49.570;10.986;2023-06-22T13:52:01;98083.97;;;33.19;39.16
52137;BME280;69622;49.570;10.986;2023-06-22T13:55:05;98071.00;;;33.11;40.81
52137;BME280;69622;49.570;10.986;2023-06-22T13:58:08;98074.00;;;33.20;41.15
52137;BME280;69622;49.570;10.986;2023-06-22T14:01:09;98067.53;;;33.21;40.75
52137;BME280;69622;49.570;10.986;2023-06-22T14:04:17;98059.72;;;33.19;38.66
52137;BME280;69622;49.570;10.986;2023-06-22T14:07:19;98045.44;;;33.09;38.81
52137;BME280;69622;49.570;10.986;2023-06-22T14:10:22;98049.75;;;33.20;38.64
52137;BME280;69622;49.570;10.986;2023-06-22T14:13:23;98039.81;;;33.41;40.31
52137;BME280;69622;49.570;10.986;2023-06-22T14:16:25;98028.22;;;33.55;39.16
52137;BME280;69622;49.570;10.986;2023-06-22T14:19:26;98013.63;;;33.82;38.02
52137;BME280;69622;49.570;10.986;2023-06-22T14:22:28;98010.38;;;33.95;37.82
52137;BME280;69622;49.570;10.986;2023-06-22T14:25:30;97996.66;;;33.71;36.75
52137;BME280;69622;49.570;10.986;2023-06-22T14:28:32;98008.28;;;33.41;37.27
52137;BME280;69622;49.570;10.986;2023-06-22T14:31:33;98015.81;;;33.54;37.34
52137;BME280;69622;49.570;10.986;2023-06-22T14:34:35;98017.44;;;33.45;37.98
52137;BME280;69622;49.570;10.986;2023-06-22T14:37:40;98015.56;;;33.46;38.23
52137;BME280;69622;49.570;10.986;2023-06-22T14:40:41;98020.09;;;33.71;38.36
52137;BME280;69622;49.570;10.986;2023-06-22T14:44:03;98023.31;;;33.98;37.24
52137;BME280;69622;49.570;10.986;2023-06-22T14:47:05;98014.69;;;33.76;36.67
52137;BME280;69622;49.570;10.986;2023-06-22T14:50:06;97996.91;;;33.85;37.32
52137;BME280;69622;49.570;10.986;2023-06-22T14:53:08;97993.41;;;33.79;37.20
52137;BME280;69622;49.570;10.986;2023-06-22T14:56:10;97982.59;;;34.00;37.98
52137;BME280;69622;49.570;10.986;2023-06-22T14:59:12;97974.75;;;34.03;37.05
52137;BME280;69622;49.570;10.986;2023-06-22T15:02:14;97966.34;;;34.15;39.66
52137;BME280;69622;49.570;10.986;2023-06-22T15:05:15;97954.06;;;34.48;38.57
52137;BME280;69622;49.570;10.986;2023-06-22T15:08:16;97962.47;;;34.36;36.93
52137;BME280;69622;49.570;10.986;2023-06-22T15:11:18;97953.25;;;34.47;35.92
52137;BME280;69622;49.570;10.986;2023-06-22T15:14:19;97937.81;;;34.58;36.46
52137;BME280;69622;49.570;10.986;2023-06-22T15:17:23;97943.03;;;34.78;35.85
52137;BME280;69622;49.570;10.986;2023-06-22T15:20:30;97935.28;;;34.72;36.11
52137;BME280;69622;49.570;10.986;2023-06-22T15:23:35;97941.97;;;34.79;36.21
52137;BME280;69622;49.570;10.986;2023-06-22T15:26:36;97939.53;;;34.78;35.51
52137;BME280;69622;49.570;10.986;2023-06-22T15:29:38;97937.44;;;34.70;35.24
52137;BME280;69622;49.570;10.986;2023-06-22T15:32:43;97927.53;;;34.60;36.13
52137;BME280;69622;49.570;10.986;2023-06-22T15:35:45;97918.69;;;34.83;36.34
52137;BME280;69622;49.570;10.986;2023-06-22T15:38:47;97902.53;;;34.78;35.46
52137;BME280;69622;49.570;10.986;2023-06-22T15:41:49;97908.22;;;34.38;35.67
52137;BME280;69622;49.570;10.986;2023-06-22T15:44:50;97899.63;;;34.31;37.07
52137;BME280;69622;49.570;10.986;2023-06-22T15:47:51;97895.25;;;34.45;35.62
52137;BME280;69622;49.570;10.986;2023-06-22T15:50:53;97889.44;;;34.17;35.28
52137;BME280;69622;49.570;10.986;2023-06-22T15:53:54;97881.59;;;34.21;34.86